sensor_id;sensor_type;location;lat;lon;timestamp;temperature;humidity
12434;DHT22;6281;49.038;8.372;2022-12-29T00:01:27;12.20;99.90
12434;DHT22;6281;49.038;8.372;2022-12-29T00:03:53;12.20;99.90
12434;DHT22;6281;49.038;8.372;2022-12-29T00:06:20;12.20;99.90
12434;DHT22;6281;49.038;8.372;2022-12-29T00:08:47;12.30;99.90
12434;DHT22;6281;49.038;8.372;2022-12-29T00:11:16;12.40;99.90
12434;DHT22;6281;49.038;8.372;2022-12-29T00:13:44;12.30;99.90
12434;DHT22;6281;49.038;8.372;2022-12-29T00:16:29;12.40;99.90
12434;DHT22;6281;49.038;8.372;2022-12-29T00:18:56;12.20;99.90
12434;DHT22;6281;49.038;8.372;2022-12-29T00:21:24;12.30;99.90
12434;DHT22;6281;49.038;8.372;2022-12-29T00:24:12;12.30;99.90
12434;DHT22;6281;49.038;8.372;2022-12-29T00:27:12;12.30;99.90
12434;DHT22;6281;49.038;8.372;2022-12-29T00:29:58;12.40;99.90
12434;DHT22;6281;49.038;8.372;2022-12-29T00:32:42;12.40;99.90
12434;DHT22;6281;49.038;8.372;2022-12-29T00:35:29;12.30;99.90
12434;DHT22;6281;49.038;8.372;2022-12-29T00:37:58;12.40;99.90
12434;DHT22;6281;49.038;8.372;2022-12-29T00:40:39;12.40;99.90
12434;DHT22;6281;49.038;8.372;2022-12-29T00:43:24;12.50;99.90
12434;DHT22;6281;49.038;8.372;2022-12-29T00:46:09;12.40;99.90
12434;DHT22;6281;49.038;8.372;2022-12-29T00:48:36;12.40;99.90
12434;DHT22;6281;49.038;8.372;2022-12-29T00:51:20;12.30;99.90
12434;DHT22;6281;49.038;8.372;2022-12-29T00:53:47;12.30;99.90
12434;DHT22;6281;49.038;8.372;2022-12-29T00:56:14;12.20;99.90
12434;DHT22;6281;49.038;8.372;2022-12-29T00:58:40;12.30;99.90
12434;DHT22;6281;49.038;8.372;2022-12-29T01:01:09;12.30;99.90
12434;DHT22;6281;49.038;8.372;2022-12-29T01:03:37;12.30;99.90
12434;DHT22;6281;49.038;8.372;2022-12-29T01:06:07;12.30;99.90
12434;DHT22;6281;49.038;8.372;2022-12-29T01:08:34;12.20;99.90
12434;DHT22;6281;49.038;8.372;2022-12-29T01:11:03;12.20;99.90
12434;DHT22;6281;49.038;8.372;2022-12-29T01:13:29;12.10;99.90
12434;DHT22;6281;49.038;8.372;2022-12-29T01:15:56;12.00;99.90
12434;DHT22;6281;49.038;8.372;2022-12-29T01:18:25;12.00;99.90
12434;DHT22;6281;49.038;8.372;2022-12-29T01:20:58;12.00;99.90
12434;DHT22;6281;49.038;8.372;2022-12-29T01:23:25;12.00;99.90
12434;DHT22;6281;49.038;8.372;2022-12-29T01:25:52;12.00;99.90
12434;DHT22;6281;49.038;8.372;2022-12-29T01:28:18;12.00;99.90
12434;DHT22;6281;49.038;8.372;2022-12-29T01:30:45;11.90;99.90
12434;DHT22;6281;49.038;8.372;2022-12-29T01:33:12;11.90;99.90
12434;DHT22;6281;49.038;8.372;2022-12-29T01:35:40;11.90;99.90
12434;DHT22;6281;49.038;8.372;2022-12-29T01:38:07;11.90;99.90
12434;DHT22;6281;49.038;8.372;2022-12-29T01:40:34;11.90;99.90
12434;DHT22;6281;49.038;8.372;2022-12-29T01:43:11;11.80;99.90
12434;DHT22;6281;49.038;8.372;2022-12-29T01:45:42;11.80;99.90
12434;DHT22;6281;49.038;8.372;2022-12-29T01:48:10;11.90;99.90
12434;DHT22;6281;49.038;8.372;2022-12-29T01:50:42;11.90;99.90
12434;DHT22;6281;49.038;8.372;2022-12-29T01:53:13;12.00;99.90
12434;DHT22;6281;49.038;8.372;2022-12-29T01:55:44;12.00;99.90
12434;DHT22;6281;49.038;8.372;2022-12-29T01:58:13;12.00;99.90
12434;DHT22;6281;49.038;8.372;2022-12-29T02:00:41;12.00;99.90
12434;DHT22;6281;49.038;8.372;2022-12-29T02:03:08;12.00;99.90
12434;DHT22;6281;49.038;8.372;2022-12-29T02:05:40;12.00;99.90
12434;DHT22;6281;49.038;8.372;2022-12-29T02:08:09;12.00;99.90
12434;DHT22;6281;49.038;8.372;2022-12-29T02:10:36;12.00;99.90
12434;DHT22;6281;49.038;8.372;2022-12-29T02:13:03;12.00;99.90
12434;DHT22;6281;49.038;8.372;2022-12-29T02:15:36;12.00;99.90
12434;DHT22;6281;49.038;8.372;2022-12-29T02:18:18;11.90;99.90
12434;DHT22;6281;49.038;8.372;2022-12-29T02:24:15;12.00;99.90
12434;DHT22;6281;49.038;8.372;2022-12-29T02:26:55;12.00;99.90
12434;DHT22;6281;49.038;8.372;2022-12-29T02:29:56;12.10;99.90
12434;DHT22;6281;49.038;8.372;2022-12-29T02:32:37;12.10;99.90
12434;DHT22;6281;49.038;8.372;2022-12-29T02:35:09;12.00;99.90
12434;DHT22;6281;49.038;8.372;2022-12-29T02:37:44;12.00;99.90
12434;DHT22;6281;49.038;8.372;2022-12-29T02:40:20;12.00;99.90
12434;DHT22;6281;49.038;8.372;2022-12-29T02:42:51;12.00;99.90
12434;DHT22;6281;49.038;8.372;2022-12-29T02:45:27;12.10;99.90
12434;DHT22;6281;49.038;8.372;2022-12-29T02:48:03;12.10;99.90
12434;DHT22;6281;49.038;8.372;2022-12-29T02:50:34;12.00;99.90
12434;DHT22;6281;49.038;8.372;2022-12-29T02:53:05;11.90;99.90
12434;DHT22;6281;49.038;8.372;2022-12-29T02:55:33;11.80;99.90
12434;DHT22;6281;49.038;8.372;2022-12-29T02:58:17;11.70;99.90
12434;DHT22;6281;49.038;8.372;2022-12-29T03:00:55;11.60;99.90
12434;DHT22;6281;49.038;8.372;2022-12-29T03:03:36;11.60;99.90
12434;DHT22;6281;49.038;8.372;2022-12-29T03:06:16;11.50;99.90
12434;DHT22;6281;49.038;8.372;2022-12-29T03:08:51;11.50;99.90
12434;DHT22;6281;49.038;8.372;2022-12-29T03:11:19;11.70;99.90
12434;DHT22;6281;49.038;8.372;2022-12-29T03:14:08;11.60;99.90
12434;DHT22;6281;49.038;8.372;2022-12-29T03:17:00;11.80;99.90
12434;DHT22;6281;49.038;8.372;2022-12-29T03:19:34;11.80;99.90
12434;DHT22;6281;49.038;8.372;2022-12-29T03:22:03;11.90;99.90
12434;DHT22;6281;49.038;8.372;2022-12-29T03:24:51;12.00;99.90
12434;DHT22;6281;49.038;8.372;2022-12-29T03:27:21;12.20;99.90
12434;DHT22;6281;49.038;8.372;2022-12-29T03:29:52;12.10;99.90
12434;DHT22;6281;49.038;8.372;2022-12-29T03:32:31;12.20;99.90
12434;DHT22;6281;49.038;8.372;2022-12-29T03:35:01;12.20;99.90
12434;DHT22;6281;49.038;8.372;2022-12-29T03:37:31;12.20;99.90
12434;DHT22;6281;49.038;8.372;2022-12-29T03:40:01;12.10;99.90
12434;DHT22;6281;49.038;8.372;2022-12-29T03:42:31;12.10;99.90
12434;DHT22;6281;49.038;8.372;2022-12-29T03:44:58;12.20;99.90
12434;DHT22;6281;49.038;8.372;2022-12-29T03:47:25;12.10;99.90
12434;DHT22;6281;49.038;8.372;2022-12-29T03:49:52;11.90;99.90
12434;DHT22;6281;49.038;8.372;2022-12-29T03:52:20;11.90;99.90
12434;DHT22;6281;49.038;8.372;2022-12-29T03:54:47;11.70;99.90
12434;DHT22;6281;49.038;8.372;2022-12-29T03:57:14;11.70;99.90
12434;DHT22;6281;49.038;8.372;2022-12-29T03:59:41;11.80;99.90
12434;DHT22;6281;49.038;8.372;2022-12-29T04:02:07;11.70;99.90
12434;DHT22;6281;49.038;8.372;2022-12-29T04:04:34;11.80;99.90
12434;DHT22;6281;49.038;8.372;2022-12-29T04:07:01;11.90;99.90
12434;DHT22;6281;49.038;8.372;2022-12-29T04:09:29;11.80;99.90
12434;DHT22;6281;49.038;8.372;2022-12-29T04:11:56;12.00;99.90
12434;DHT22;6281;49.038;8.372;2022-12-29T04:14:23;11.90;99.90
12434;DHT22;6281;49.038;8.372;2022-12-29T04:16:50;11.90;99.90
12434;DHT22;6281;49.038;8.372;2022-12-29T04:19:17;11.90;99.90
12434;DHT22;6281;49.038;8.372;2022-12-29T04:21:44;11.90;99.90
12434;DHT22;6281;49.038;8.372;2022-12-29T04:24:11;11.90;99.90
12434;DHT22;6281;49.038;8.372;2022-12-29T04:26:39;12.00;99.90
12434;DHT22;6281;49.038;8.372;2022-12-29T04:29:06;11.90;99.90
12434;DHT22;6281;49.038;8.372;2022-12-29T04:31:33;11.90;99.90
12434;DHT22;6281;49.038;8.372;2022-12-29T04:34:00;12.00;99.90
12434;DHT22;6281;49.038;8.372;2022-12-29T04:36:27;12.20;99.90
12434;DHT22;6281;49.038;8.372;2022-12-29T04:38:54;12.10;99.90
12434;DHT22;6281;49.038;8.372;2022-12-29T04:41:21;12.10;99.90
12434;DHT22;6281;49.038;8.372;2022-12-29T04:43:49;12.10;99.90
12434;DHT22;6281;49.038;8.372;2022-12-29T04:46:16;12.10;99.90
12434;DHT22;6281;49.038;8.372;2022-12-29T04:48:43;12.00;99.90
12434;DHT22;6281;49.038;8.372;2022-12-29T04:51:10;12.10;99.90
12434;DHT22;6281;49.038;8.372;2022-12-29T04:53:37;12.10;99.90
12434;DHT22;6281;49.038;8.372;2022-12-29T04:56:04;12.10;99.90
12434;DHT22;6281;49.038;8.372;2022-12-29T04:58:31;12.10;99.90
12434;DHT22;6281;49.038;8.372;2022-12-29T05:01:00;12.10;99.90
12434;DHT22;6281;49.038;8.372;2022-12-29T05:03:27;12.10;99.90
12434;DHT22;6281;49.038;8.372;2022-12-29T05:05:54;12.20;99.90
12434;DHT22;6281;49.038;8.372;2022-12-29T05:08:21;12.10;99.90
12434;DHT22;6281;49.038;8.372;2022-12-29T05:10:50;12.10;99.90
12434;DHT22;6281;49.038;8.372;2022-12-29T05:13:17;12.10;99.90
12434;DHT22;6281;49.038;8.372;2022-12-29T05:15:47;12.10;99.90
12434;DHT22;6281;49.038;8.372;2022-12-29T05:18:15;12.10;99.90
12434;DHT22;6281;49.038;8.372;2022-12-29T05:20:42;12.10;99.90
12434;DHT22;6281;49.038;8.372;2022-12-29T05:23:09;12.10;99.90
12434;DHT22;6281;49.038;8.372;2022-12-29T05:25:36;12.10;99.90
12434;DHT22;6281;49.038;8.372;2022-12-29T05:28:03;12.10;99.90
12434;DHT22;6281;49.038;8.372;2022-12-29T05:30:30;12.10;99.90
12434;DHT22;6281;49.038;8.372;2022-12-29T05:32:57;12.10;99.90
12434;DHT22;6281;49.038;8.372;2022-12-29T05:35:25;12.20;99.90
12434;DHT22;6281;49.038;8.372;2022-12-29T05:37:52;12.10;99.90
12434;DHT22;6281;49.038;8.372;2022-12-29T05:40:19;12.20;99.90
12434;DHT22;6281;49.038;8.372;2022-12-29T05:42:46;12.20;99.90
12434;DHT22;6281;49.038;8.372;2022-12-29T05:45:13;12.20;99.90
12434;DHT22;6281;49.038;8.372;2022-12-29T05:47:40;12.10;99.90
12434;DHT22;6281;49.038;8.372;2022-12-29T05:50:07;12.10;99.90
12434;DHT22;6281;49.038;8.372;2022-12-29T05:52:36;12.30;99.90
12434;DHT22;6281;49.038;8.372;2022-12-29T05:55:03;12.20;99.90
12434;DHT22;6281;49.038;8.372;2022-12-29T05:57:30;12.10;99.90
12434;DHT22;6281;49.038;8.372;2022-12-29T05:59:57;12.10;99.90
12434;DHT22;6281;49.038;8.372;2022-12-29T06:02:24;12.10;99.90
12434;DHT22;6281;49.038;8.372;2022-12-29T06:04:51;12.00;99.90
12434;DHT22;6281;49.038;8.372;2022-12-29T06:07:18;12.00;99.90
12434;DHT22;6281;49.038;8.372;2022-12-29T06:09:46;11.90;99.90
12434;DHT22;6281;49.038;8.372;2022-12-29T06:12:13;11.90;99.90
12434;DHT22;6281;49.038;8.372;2022-12-29T06:14:40;12.10;99.90
12434;DHT22;6281;49.038;8.372;2022-12-29T06:17:07;12.10;99.90
12434;DHT22;6281;49.038;8.372;2022-12-29T06:19:34;12.10;99.90
12434;DHT22;6281;49.038;8.372;2022-12-29T06:22:01;12.20;99.90
12434;DHT22;6281;49.038;8.372;2022-12-29T06:24:28;12.40;99.90
12434;DHT22;6281;49.038;8.372;2022-12-29T06:26:56;12.30;99.90
12434;DHT22;6281;49.038;8.372;2022-12-29T06:29:23;12.40;99.90
12434;DHT22;6281;49.038;8.372;2022-12-29T06:31:50;12.40;99.90
12434;DHT22;6281;49.038;8.372;2022-12-29T06:34:21;12.40;99.90
12434;DHT22;6281;49.038;8.372;2022-12-29T06:36:48;12.40;99.90
12434;DHT22;6281;49.038;8.372;2022-12-29T06:39:15;12.40;99.90
12434;DHT22;6281;49.038;8.372;2022-12-29T06:41:42;12.40;99.90
12434;DHT22;6281;49.038;8.372;2022-12-29T06:44:10;12.50;99.90
12434;DHT22;6281;49.038;8.372;2022-12-29T06:46:37;12.50;99.90
12434;DHT22;6281;49.038;8.372;2022-12-29T06:49:04;12.40;99.90
12434;DHT22;6281;49.038;8.372;2022-12-29T06:51:31;12.30;99.90
12434;DHT22;6281;49.038;8.372;2022-12-29T06:53:58;12.30;99.90
12434;DHT22;6281;49.038;8.372;2022-12-29T06:56:25;12.30;99.90
12434;DHT22;6281;49.038;8.372;2022-12-29T06:58:51;12.40;99.90
12434;DHT22;6281;49.038;8.372;2022-12-29T07:01:20;12.40;99.90
12434;DHT22;6281;49.038;8.372;2022-12-29T07:03:47;12.40;99.90
12434;DHT22;6281;49.038;8.372;2022-12-29T07:06:14;12.50;99.90
12434;DHT22;6281;49.038;8.372;2022-12-29T07:08:41;12.40;99.90
12434;DHT22;6281;49.038;8.372;2022-12-29T07:11:07;12.40;99.90
12434;DHT22;6281;49.038;8.372;2022-12-29T07:13:35;12.50;99.90
12434;DHT22;6281;49.038;8.372;2022-12-29T07:16:05;12.50;99.90
12434;DHT22;6281;49.038;8.372;2022-12-29T07:18:33;12.40;99.90
12434;DHT22;6281;49.038;8.372;2022-12-29T07:21:01;12.50;99.90
12434;DHT22;6281;49.038;8.372;2022-12-29T07:23:28;12.50;99.90
12434;DHT22;6281;49.038;8.372;2022-12-29T07:25:59;12.40;99.90
12434;DHT22;6281;49.038;8.372;2022-12-29T07:28:26;12.40;99.90
12434;DHT22;6281;49.038;8.372;2022-12-29T07:30:53;12.40;99.90
12434;DHT22;6281;49.038;8.372;2022-12-29T07:33:20;12.40;99.90
12434;DHT22;6281;49.038;8.372;2022-12-29T07:35:49;12.40;99.90
12434;DHT22;6281;49.038;8.372;2022-12-29T07:38:16;12.50;99.90
12434;DHT22;6281;49.038;8.372;2022-12-29T07:40:43;12.40;99.90
12434;DHT22;6281;49.038;8.372;2022-12-29T07:43:09;12.60;99.90
12434;DHT22;6281;49.038;8.372;2022-12-29T07:45:36;12.50;99.90
12434;DHT22;6281;49.038;8.372;2022-12-29T07:48:04;12.40;99.90
12434;DHT22;6281;49.038;8.372;2022-12-29T07:50:33;12.40;99.90
12434;DHT22;6281;49.038;8.372;2022-12-29T07:53:01;12.60;99.90
12434;DHT22;6281;49.038;8.372;2022-12-29T07:55:29;12.50;99.90
12434;DHT22;6281;49.038;8.372;2022-12-29T07:57:56;12.50;99.90
12434;DHT22;6281;49.038;8.372;2022-12-29T08:00:25;12.50;99.90
12434;DHT22;6281;49.038;8.372;2022-12-29T08:02:52;12.50;99.90
12434;DHT22;6281;49.038;8.372;2022-12-29T08:05:19;12.50;99.90
12434;DHT22;6281;49.038;8.372;2022-12-29T08:07:46;12.50;99.90
12434;DHT22;6281;49.038;8.372;2022-12-29T08:10:15;12.60;99.90
12434;DHT22;6281;49.038;8.372;2022-12-29T08:12:43;12.60;99.90
12434;DHT22;6281;49.038;8.372;2022-12-29T08:15:11;12.60;99.90
12434;DHT22;6281;49.038;8.372;2022-12-29T08:17:38;12.80;99.90
12434;DHT22;6281;49.038;8.372;2022-12-29T08:20:06;12.70;99.90
12434;DHT22;6281;49.038;8.372;2022-12-29T08:22:33;12.70;99.90
12434;DHT22;6281;49.038;8.372;2022-12-29T08:25:00;12.80;99.90
12434;DHT22;6281;49.038;8.372;2022-12-29T08:27:28;12.80;99.90
12434;DHT22;6281;49.038;8.372;2022-12-29T08:29:55;12.90;99.90
12434;DHT22;6281;49.038;8.372;2022-12-29T08:32:22;12.90;99.90
12434;DHT22;6281;49.038;8.372;2022-12-29T08:34:48;12.80;99.90
12434;DHT22;6281;49.038;8.372;2022-12-29T08:37:16;12.90;99.90
12434;DHT22;6281;49.038;8.372;2022-12-29T08:39:42;12.90;99.90
12434;DHT22;6281;49.038;8.372;2022-12-29T08:42:09;12.90;99.90
12434;DHT22;6281;49.038;8.372;2022-12-29T08:44:37;12.90;99.90
12434;DHT22;6281;49.038;8.372;2022-12-29T08:47:04;13.00;99.90
12434;DHT22;6281;49.038;8.372;2022-12-29T08:49:31;13.00;99.90
12434;DHT22;6281;49.038;8.372;2022-12-29T08:51:59;13.10;99.90
12434;DHT22;6281;49.038;8.372;2022-12-29T08:54:26;13.00;99.90
12434;DHT22;6281;49.038;8.372;2022-12-29T08:56:52;13.10;99.90
12434;DHT22;6281;49.038;8.372;2022-12-29T08:59:20;13.10;99.90
12434;DHT22;6281;49.038;8.372;2022-12-29T09:01:48;13.10;99.90
12434;DHT22;6281;49.038;8.372;2022-12-29T09:04:15;13.10;99.90
12434;DHT22;6281;49.038;8.372;2022-12-29T09:06:42;13.10;99.90
12434;DHT22;6281;49.038;8.372;2022-12-29T09:09:09;13.10;99.90
12434;DHT22;6281;49.038;8.372;2022-12-29T09:11:36;13.10;99.90
12434;DHT22;6281;49.038;8.372;2022-12-29T09:14:03;13.10;99.90
12434;DHT22;6281;49.038;8.372;2022-12-29T09:16:30;13.30;99.90
12434;DHT22;6281;49.038;8.372;2022-12-29T09:18:59;13.50;99.90
12434;DHT22;6281;49.038;8.372;2022-12-29T09:21:26;13.70;99.90
12434;DHT22;6281;49.038;8.372;2022-12-29T09:23:53;13.40;99.90
12434;DHT22;6281;49.038;8.372;2022-12-29T09:26:20;13.40;99.90
12434;DHT22;6281;49.038;8.372;2022-12-29T09:28:47;13.40;99.90
12434;DHT22;6281;49.038;8.372;2022-12-29T09:31:14;13.30;99.90
12434;DHT22;6281;49.038;8.372;2022-12-29T09:33:41;13.20;99.90
12434;DHT22;6281;49.038;8.372;2022-12-29T09:36:09;13.20;99.90
12434;DHT22;6281;49.038;8.372;2022-12-29T09:38:36;13.30;99.90
12434;DHT22;6281;49.038;8.372;2022-12-29T09:41:10;13.30;99.90
12434;DHT22;6281;49.038;8.372;2022-12-29T09:44:07;13.20;99.90
12434;DHT22;6281;49.038;8.372;2022-12-29T09:46:37;13.20;99.90
12434;DHT22;6281;49.038;8.372;2022-12-29T09:49:11;13.30;99.90
12434;DHT22;6281;49.038;8.372;2022-12-29T09:51:43;13.30;99.90
12434;DHT22;6281;49.038;8.372;2022-12-29T09:54:23;13.30;99.90
12434;DHT22;6281;49.038;8.372;2022-12-29T09:56:52;13.30;99.90
12434;DHT22;6281;49.038;8.372;2022-12-29T09:59:21;13.30;99.90
12434;DHT22;6281;49.038;8.372;2022-12-29T10:01:55;13.30;99.90
12434;DHT22;6281;49.038;8.372;2022-12-29T10:04:26;13.20;99.90
12434;DHT22;6281;49.038;8.372;2022-12-29T10:06:58;13.20;99.90
12434;DHT22;6281;49.038;8.372;2022-12-29T10:09:32;13.10;99.90
12434;DHT22;6281;49.038;8.372;2022-12-29T10:12:11;13.10;99.90
12434;DHT22;6281;49.038;8.372;2022-12-29T10:14:52;13.10;99.90
12434;DHT22;6281;49.038;8.372;2022-12-29T10:17:27;12.90;99.90
12434;DHT22;6281;49.038;8.372;2022-12-29T10:20:14;12.90;99.90
12434;DHT22;6281;49.038;8.372;2022-12-29T10:22:59;12.80;99.90
12434;DHT22;6281;49.038;8.372;2022-12-29T10:25:31;12.90;99.90
12434;DHT22;6281;49.038;8.372;2022-12-29T10:28:01;12.70;99.90
12434;DHT22;6281;49.038;8.372;2022-12-29T10:30:33;12.70;99.90
12434;DHT22;6281;49.038;8.372;2022-12-29T10:33:04;12.70;99.90
12434;DHT22;6281;49.038;8.372;2022-12-29T10:35:34;12.50;99.90
12434;DHT22;6281;49.038;8.372;2022-12-29T10:38:11;12.50;99.90
12434;DHT22;6281;49.038;8.372;2022-12-29T10:40:42;12.50;99.90
12434;DHT22;6281;49.038;8.372;2022-12-29T10:43:22;12.40;99.90
12434;DHT22;6281;49.038;8.372;2022-12-29T10:45:51;12.50;99.90
12434;DHT22;6281;49.038;8.372;2022-12-29T10:48:21;12.40;99.90
12434;DHT22;6281;49.038;8.372;2022-12-29T10:50:50;12.30;99.90
12434;DHT22;6281;49.038;8.372;2022-12-29T10:53:21;12.30;99.90
12434;DHT22;6281;49.038;8.372;2022-12-29T10:55:49;12.30;99.90
12434;DHT22;6281;49.038;8.372;2022-12-29T10:58:17;12.30;99.90
12434;DHT22;6281;49.038;8.372;2022-12-29T11:00:49;12.40;99.90
12434;DHT22;6281;49.038;8.372;2022-12-29T11:03:45;12.60;99.90
12434;DHT22;6281;49.038;8.372;2022-12-29T11:06:20;12.80;99.90
12434;DHT22;6281;49.038;8.372;2022-12-29T11:08:52;12.90;99.90
12434;DHT22;6281;49.038;8.372;2022-12-29T11:11:24;13.20;99.90
12434;DHT22;6281;49.038;8.372;2022-12-29T11:13:57;13.20;99.90
12434;DHT22;6281;49.038;8.372;2022-12-29T11:16:29;13.20;99.90
12434;DHT22;6281;49.038;8.372;2022-12-29T11:18:57;13.20;99.90
12434;DHT22;6281;49.038;8.372;2022-12-29T11:21:31;13.30;99.90
12434;DHT22;6281;49.038;8.372;2022-12-29T11:24:01;13.30;99.90
12434;DHT22;6281;49.038;8.372;2022-12-29T11:26:29;13.50;99.90
12434;DHT22;6281;49.038;8.372;2022-12-29T11:29:22;13.60;99.90
12434;DHT22;6281;49.038;8.372;2022-12-29T11:31:50;13.70;99.90
12434;DHT22;6281;49.038;8.372;2022-12-29T11:34:19;13.90;99.90
12434;DHT22;6281;49.038;8.372;2022-12-29T11:36:47;13.90;99.90
12434;DHT22;6281;49.038;8.372;2022-12-29T11:39:30;14.00;99.90
12434;DHT22;6281;49.038;8.372;2022-12-29T11:41:59;14.00;99.90
12434;DHT22;6281;49.038;8.372;2022-12-29T11:44:32;13.90;99.90
12434;DHT22;6281;49.038;8.372;2022-12-29T11:47:02;13.90;99.90
12434;DHT22;6281;49.038;8.372;2022-12-29T11:49:29;14.00;99.90
12434;DHT22;6281;49.038;8.372;2022-12-29T11:51:56;14.00;99.90
12434;DHT22;6281;49.038;8.372;2022-12-29T11:54:24;14.30;99.90
12434;DHT22;6281;49.038;8.372;2022-12-29T11:56:54;14.10;99.90
12434;DHT22;6281;49.038;8.372;2022-12-29T11:59:25;14.00;99.90
12434;DHT22;6281;49.038;8.372;2022-12-29T12:04:57;13.80;99.90
12434;DHT22;6281;49.038;8.372;2022-12-29T12:07:36;13.80;99.90
12434;DHT22;6281;49.038;8.372;2022-12-29T12:10:08;13.70;99.90
12434;DHT22;6281;49.038;8.372;2022-12-29T12:12:43;13.70;99.90
12434;DHT22;6281;49.038;8.372;2022-12-29T12:15:16;13.70;99.90
12434;DHT22;6281;49.038;8.372;2022-12-29T12:17:49;13.70;99.90
12434;DHT22;6281;49.038;8.372;2022-12-29T12:20:19;13.70;99.90
12434;DHT22;6281;49.038;8.372;2022-12-29T12:22:54;13.60;99.90
12434;DHT22;6281;49.038;8.372;2022-12-29T12:25:23;13.60;99.90
12434;DHT22;6281;49.038;8.372;2022-12-29T12:27:58;13.60;99.90
12434;DHT22;6281;49.038;8.372;2022-12-29T12:30:28;13.60;99.90
12434;DHT22;6281;49.038;8.372;2022-12-29T12:33:00;13.60;99.90
12434;DHT22;6281;49.038;8.372;2022-12-29T12:35:34;13.70;99.90
12434;DHT22;6281;49.038;8.372;2022-12-29T12:38:16;13.80;99.90
12434;DHT22;6281;49.038;8.372;2022-12-29T12:40:59;13.60;99.90
12434;DHT22;6281;49.038;8.372;2022-12-29T12:43:37;13.60;99.90
12434;DHT22;6281;49.038;8.372;2022-12-29T12:46:19;13.60;99.90
12434;DHT22;6281;49.038;8.372;2022-12-29T12:51:45;13.50;99.90
12434;DHT22;6281;49.038;8.372;2022-12-29T12:54:25;13.40;99.90
12434;DHT22;6281;49.038;8.372;2022-12-29T12:57:14;13.50;99.90
12434;DHT22;6281;49.038;8.372;2022-12-29T12:59:56;13.50;99.90
12434;DHT22;6281;49.038;8.372;2022-12-29T13:02:37;13.40;99.90
12434;DHT22;6281;49.038;8.372;2022-12-29T13:05:32;13.40;99.90
12434;DHT22;6281;49.038;8.372;2022-12-29T13:08:21;13.30;99.90
12434;DHT22;6281;49.038;8.372;2022-12-29T13:10:52;13.30;99.90
12434;DHT22;6281;49.038;8.372;2022-12-29T13:13:51;13.40;99.90
12434;DHT22;6281;49.038;8.372;2022-12-29T13:16:27;13.30;99.90
12434;DHT22;6281;49.038;8.372;2022-12-29T13:19:00;13.40;99.90
12434;DHT22;6281;49.038;8.372;2022-12-29T13:21:37;13.40;99.90
12434;DHT22;6281;49.038;8.372;2022-12-29T13:24:15;13.40;99.90
12434;DHT22;6281;49.038;8.372;2022-12-29T13:26:48;13.40;99.90
12434;DHT22;6281;49.038;8.372;2022-12-29T13:29:20;13.30;99.90
12434;DHT22;6281;49.038;8.372;2022-12-29T13:31:56;13.30;99.90
12434;DHT22;6281;49.038;8.372;2022-12-29T13:34:38;13.20;99.90
12434;DHT22;6281;49.038;8.372;2022-12-29T13:37:11;13.20;99.90
12434;DHT22;6281;49.038;8.372;2022-12-29T13:39:41;13.00;99.90
12434;DHT22;6281;49.038;8.372;2022-12-29T13:42:09;12.70;99.90
12434;DHT22;6281;49.038;8.372;2022-12-29T13:44:43;12.60;99.90
12434;DHT22;6281;49.038;8.372;2022-12-29T13:47:22;12.40;99.90
12434;DHT22;6281;49.038;8.372;2022-12-29T13:49:52;12.20;99.90
12434;DHT22;6281;49.038;8.372;2022-12-29T13:52:27;12.10;99.90
12434;DHT22;6281;49.038;8.372;2022-12-29T13:55:00;12.10;99.90
12434;DHT22;6281;49.038;8.372;2022-12-29T13:57:38;12.00;99.90
12434;DHT22;6281;49.038;8.372;2022-12-29T14:00:13;11.70;99.90
12434;DHT22;6281;49.038;8.372;2022-12-29T14:02:53;11.50;99.90
12434;DHT22;6281;49.038;8.372;2022-12-29T14:05:28;11.30;99.90
12434;DHT22;6281;49.038;8.372;2022-12-29T14:08:00;11.10;99.90
12434;DHT22;6281;49.038;8.372;2022-12-29T14:10:29;10.90;99.90
12434;DHT22;6281;49.038;8.372;2022-12-29T14:13:03;11.00;99.90
12434;DHT22;6281;49.038;8.372;2022-12-29T14:15:31;10.90;99.90
12434;DHT22;6281;49.038;8.372;2022-12-29T14:18:09;10.80;99.90
12434;DHT22;6281;49.038;8.372;2022-12-29T14:20:37;10.70;99.90
12434;DHT22;6281;49.038;8.372;2022-12-29T14:23:24;10.70;99.90
12434;DHT22;6281;49.038;8.372;2022-12-29T14:26:09;10.60;99.90
12434;DHT22;6281;49.038;8.372;2022-12-29T14:28:38;10.60;99.90
12434;DHT22;6281;49.038;8.372;2022-12-29T14:31:17;10.50;99.90
12434;DHT22;6281;49.038;8.372;2022-12-29T14:34:21;10.30;99.90
12434;DHT22;6281;49.038;8.372;2022-12-29T14:36:53;10.20;99.90
12434;DHT22;6281;49.038;8.372;2022-12-29T14:39:38;10.20;99.90
12434;DHT22;6281;49.038;8.372;2022-12-29T14:42:11;10.10;99.90
12434;DHT22;6281;49.038;8.372;2022-12-29T14:44:47;10.20;99.90
12434;DHT22;6281;49.038;8.372;2022-12-29T14:47:19;10.20;99.90
12434;DHT22;6281;49.038;8.372;2022-12-29T14:49:48;10.10;99.90
12434;DHT22;6281;49.038;8.372;2022-12-29T14:52:18;10.20;99.90
12434;DHT22;6281;49.038;8.372;2022-12-29T14:54:51;10.20;99.90
12434;DHT22;6281;49.038;8.372;2022-12-29T14:57:32;10.30;99.90
12434;DHT22;6281;49.038;8.372;2022-12-29T15:00:19;10.20;99.90
12434;DHT22;6281;49.038;8.372;2022-12-29T15:02:49;10.20;99.90
12434;DHT22;6281;49.038;8.372;2022-12-29T15:05:27;10.10;99.90
12434;DHT22;6281;49.038;8.372;2022-12-29T15:07:56;10.20;99.90
12434;DHT22;6281;49.038;8.372;2022-12-29T15:10:24;10.30;99.90
12434;DHT22;6281;49.038;8.372;2022-12-29T15:12:53;10.20;99.90
12434;DHT22;6281;49.038;8.372;2022-12-29T15:15:22;10.20;99.90
12434;DHT22;6281;49.038;8.372;2022-12-29T15:17:49;10.30;99.90
12434;DHT22;6281;49.038;8.372;2022-12-29T15:20:24;10.10;99.90
12434;DHT22;6281;49.038;8.372;2022-12-29T15:22:54;10.20;99.90
12434;DHT22;6281;49.038;8.372;2022-12-29T15:25:23;10.10;99.90
12434;DHT22;6281;49.038;8.372;2022-12-29T15:27:51;10.10;99.90
12434;DHT22;6281;49.038;8.372;2022-12-29T15:30:19;10.00;99.90
12434;DHT22;6281;49.038;8.372;2022-12-29T15:32:47;9.90;99.90
12434;DHT22;6281;49.038;8.372;2022-12-29T15:35:32;9.80;99.90
12434;DHT22;6281;49.038;8.372;2022-12-29T15:38:00;9.80;99.90
12434;DHT22;6281;49.038;8.372;2022-12-29T15:40:39;9.90;99.90
12434;DHT22;6281;49.038;8.372;2022-12-29T15:43:23;9.80;99.90
12434;DHT22;6281;49.038;8.372;2022-12-29T15:45:54;9.80;99.90
12434;DHT22;6281;49.038;8.372;2022-12-29T15:48:23;9.70;99.90
12434;DHT22;6281;49.038;8.372;2022-12-29T15:50:52;9.80;99.90
12434;DHT22;6281;49.038;8.372;2022-12-29T15:53:21;9.90;99.90
12434;DHT22;6281;49.038;8.372;2022-12-29T15:55:55;9.80;99.90
12434;DHT22;6281;49.038;8.372;2022-12-29T15:58:24;9.70;99.90
12434;DHT22;6281;49.038;8.372;2022-12-29T16:00:53;9.70;99.90
12434;DHT22;6281;49.038;8.372;2022-12-29T16:03:23;9.80;99.90
12434;DHT22;6281;49.038;8.372;2022-12-29T16:05:55;9.80;99.90
12434;DHT22;6281;49.038;8.372;2022-12-29T16:08:33;9.60;99.90
12434;DHT22;6281;49.038;8.372;2022-12-29T16:11:05;9.70;99.90
12434;DHT22;6281;49.038;8.372;2022-12-29T16:13:38;9.80;99.90
12434;DHT22;6281;49.038;8.372;2022-12-29T16:16:09;9.80;99.90
12434;DHT22;6281;49.038;8.372;2022-12-29T16:18:39;9.90;99.90
12434;DHT22;6281;49.038;8.372;2022-12-29T16:21:16;9.90;99.90
12434;DHT22;6281;49.038;8.372;2022-12-29T16:23:48;9.80;99.90